createdAt,value
2024-02-08T00:01:23.640Z,87.26
2024-02-08T00:04:52.582Z,87.04
2024-02-08T00:08:21.311Z,86.99
2024-02-08T00:11:51.108Z,86.77
2024-02-08T00:15:19.738Z,86.50
2024-02-08T00:18:48.420Z,86.42
2024-02-08T00:22:17.361Z,86.32
2024-02-08T00:25:46.107Z,86.21
2024-02-08T00:29:15.096Z,86.30
2024-02-08T00:32:43.874Z,86.06
2024-02-08T00:36:12.774Z,85.85
2024-02-08T00:39:41.649Z,85.80
2024-02-08T00:43:12.462Z,85.66
2024-02-08T00:46:41.001Z,85.85
2024-02-08T00:50:09.640Z,85.73
2024-02-08T00:53:38.499Z,85.57
2024-02-08T00:57:07.742Z,85.59
2024-02-08T01:00:36.631Z,85.69
2024-02-08T01:04:10.964Z,85.74
2024-02-08T01:07:40.832Z,85.78
2024-02-08T01:11:09.792Z,85.88
2024-02-08T01:14:41.002Z,85.48
2024-02-08T01:18:12.679Z,85.67
2024-02-08T01:21:42.249Z,85.71
2024-02-08T01:25:11.008Z,85.64
2024-02-08T01:28:39.736Z,85.78
2024-02-08T01:32:08.720Z,85.80
2024-02-08T01:35:37.605Z,85.80
2024-02-08T01:39:08.598Z,85.83
2024-02-08T01:42:37.475Z,85.89
2024-02-08T01:46:11.803Z,85.84
2024-02-08T01:49:20.189Z,85.76
2024-02-08T01:52:48.825Z,86.15
2024-02-08T01:56:17.408Z,86.11
2024-02-08T01:59:46.257Z,86.13
2024-02-08T02:03:14.887Z,86.12
2024-02-08T02:06:37.516Z,85.93
2024-02-08T02:10:06.309Z,85.95
2024-02-08T02:13:35.417Z,85.97
2024-02-08T02:17:03.475Z,85.98
2024-02-08T02:20:32.244Z,85.77
2024-02-08T02:24:00.888Z,85.86
2024-02-08T02:27:29.436Z,85.96
2024-02-08T02:30:57.955Z,85.89
2024-02-08T02:34:16.704Z,85.98
2024-02-08T02:37:38.477Z,86.16
2024-02-08T02:41:12.381Z,86.12
2024-02-08T02:44:41.106Z,86.28
2024-02-08T02:48:02.448Z,86.30
2024-02-08T02:51:31.442Z,86.46
2024-02-08T02:55:00.059Z,86.49
2024-02-08T02:58:28.652Z,86.23
2024-02-08T03:02:00.416Z,86.46
2024-02-08T03:05:29.169Z,86.43
2024-02-08T03:08:57.833Z,86.50
2024-02-08T03:12:26.657Z,86.57
2024-02-08T03:15:58.524Z,86.61
2024-02-08T03:19:27.186Z,86.36
2024-02-08T03:22:55.971Z,86.38
2024-02-08T03:26:25.064Z,86.73
2024-02-08T03:29:53.596Z,86.72
2024-02-08T03:33:22.265Z,86.50
2024-02-08T03:36:42.007Z,86.57
2024-02-08T03:40:11.022Z,86.75
2024-02-08T03:43:34.479Z,86.64
2024-02-08T03:47:03.461Z,86.64
2024-02-08T03:50:33.827Z,86.34
2024-02-08T03:54:02.680Z,86.45
2024-02-08T03:57:31.268Z,86.42
2024-02-08T04:01:00.519Z,86.11
2024-02-08T04:04:35.265Z,86.36
2024-02-08T04:08:19.344Z,86.36
2024-02-08T04:11:46.869Z,86.52
2024-02-08T04:15:16.970Z,86.41
2024-02-08T04:18:34.475Z,86.47
2024-02-08T04:22:01.437Z,86.19
2024-02-08T04:25:27.081Z,86.23
2024-02-08T04:28:54.450Z,86.27
2024-02-08T04:32:24.489Z,86.39
2024-02-08T04:35:51.760Z,86.24
2024-02-08T04:39:18.847Z,86.34
2024-02-08T04:42:46.025Z,86.54
2024-02-08T04:46:13.067Z,86.49
2024-02-08T04:49:40.242Z,86.70
2024-02-08T04:53:07.756Z,86.48
2024-02-08T04:56:36.801Z,86.54
2024-02-08T05:00:05.612Z,86.59
2024-02-08T05:03:34.528Z,86.64
2024-02-08T05:07:03.437Z,86.68
2024-02-08T05:10:32.422Z,86.54
2024-02-08T05:14:01.151Z,86.55
2024-02-08T05:17:32.826Z,86.52
2024-02-08T05:21:01.386Z,86.32
2024-02-08T05:24:29.967Z,86.73
2024-02-08T05:28:01.147Z,86.46
2024-02-08T05:31:29.771Z,86.51
2024-02-08T05:34:58.673Z,86.33
2024-02-08T05:38:27.536Z,86.50
2024-02-08T05:41:56.144Z,86.55
2024-02-08T05:45:40.297Z,86.53
2024-02-08T05:49:16.511Z,86.27
2024-02-08T05:52:45.859Z,86.29
2024-02-08T05:56:14.511Z,86.56
2024-02-08T05:59:43.314Z,86.33
2024-02-08T06:03:12.256Z,86.27
2024-02-08T06:06:56.185Z,86.41
2024-02-08T06:24:27.655Z,86.50
2024-02-08T06:28:11.538Z,86.40
2024-02-08T06:31:41.509Z,86.36
2024-02-08T06:35:11.056Z,86.61
2024-02-08T06:38:45.073Z,86.57
2024-02-08T06:42:30.473Z,86.79
2024-02-08T06:45:52.869Z,86.65
2024-02-08T06:49:22.829Z,86.84
2024-02-08T06:52:49.941Z,86.63
2024-02-08T06:56:17.084Z,86.58
2024-02-08T06:59:36.729Z,86.72
2024-02-08T07:03:04.364Z,87.01
2024-02-08T07:06:24.424Z,86.73
2024-02-08T07:09:51.583Z,86.95
2024-02-08T07:13:19.467Z,87.14
2024-02-08T07:16:46.328Z,86.79
2024-02-08T07:20:13.783Z,86.92
2024-02-08T07:23:24.254Z,86.91
2024-02-08T07:26:53.951Z,87.03
2024-02-08T07:30:20.869Z,86.93
2024-02-08T07:33:47.958Z,87.21
2024-02-08T07:37:15.601Z,87.16
2024-02-08T07:40:50.117Z,87.03
2024-02-08T07:44:19.015Z,87.02
2024-02-08T07:47:47.614Z,87.04
2024-02-08T07:51:18.927Z,86.98
2024-02-08T07:54:47.589Z,87.07
2024-02-08T07:58:19.509Z,87.27
2024-02-08T08:01:48.517Z,86.94
2024-02-08T08:05:13.918Z,87.01
2024-02-08T08:08:55.077Z,86.96
2024-02-08T08:12:25.438Z,86.95
2024-02-08T08:15:54.302Z,86.87
2024-02-08T08:19:32.267Z,87.12
2024-02-08T08:23:01.027Z,86.86
2024-02-08T08:26:22.691Z,86.94
2024-02-08T08:29:40.047Z,86.57
2024-02-08T08:33:14.440Z,86.31
2024-02-08T08:36:23.095Z,86.57
2024-02-08T08:39:50.265Z,85.90
2024-02-08T08:43:18.910Z,86.09
2024-02-08T08:46:47.837Z,86.52
2024-02-08T08:50:16.768Z,86.35
2024-02-08T08:53:46.044Z,86.35
2024-02-08T08:57:15.183Z,85.68
2024-02-08T09:00:44.008Z,85.62
2024-02-08T09:04:18.763Z,85.76
2024-02-08T09:07:47.780Z,85.90
2024-02-08T09:11:16.495Z,85.81
2024-02-08T09:14:45.097Z,85.63
2024-02-08T09:18:10.382Z,85.45
2024-02-08T09:21:40.520Z,84.95
2024-02-08T09:25:22.249Z,85.38
2024-02-08T09:28:59.917Z,85.20
2024-02-08T09:32:40.849Z,85.21
2024-02-08T09:36:09.542Z,83.63
2024-02-08T09:39:38.080Z,84.47
2024-02-08T09:43:07.071Z,83.68
2024-02-08T09:46:38.763Z,82.12
2024-02-08T09:50:07.683Z,83.95
2024-02-08T09:53:38.282Z,84.24
2024-02-08T09:56:59.948Z,83.52
2024-02-08T10:00:09.132Z,82.72
2024-02-08T10:03:38.042Z,82.93
2024-02-08T10:07:07.778Z,82.72
2024-02-08T10:10:39.255Z,82.94
2024-02-08T10:14:20.502Z,82.65
2024-02-08T10:18:04.335Z,82.81
2024-02-08T10:21:33.124Z,82.40
2024-02-08T10:25:10.914Z,81.83
2024-02-08T10:28:39.880Z,81.82
2024-02-08T10:32:08.779Z,81.46
2024-02-08T10:35:46.840Z,81.46
2024-02-08T10:39:21.716Z,80.50
2024-02-08T10:42:50.518Z,81.16
2024-02-08T10:46:23.717Z,81.18
2024-02-08T10:49:52.463Z,81.14
2024-02-08T10:53:22.418Z,81.26
2024-02-08T10:56:53.752Z,80.95
2024-02-08T11:00:22.350Z,80.35
2024-02-08T11:03:57.170Z,79.91
2024-02-08T11:07:28.822Z,79.77
2024-02-08T11:10:57.617Z,79.66
2024-02-08T11:14:26.202Z,79.84
2024-02-08T11:17:55.061Z,79.05
2024-02-08T11:21:30.014Z,78.69
2024-02-08T11:25:01.718Z,78.27
2024-02-08T11:28:33.304Z,77.45
2024-02-08T11:32:01.974Z,77.98
2024-02-08T11:35:30.792Z,77.47
2024-02-08T11:39:20.870Z,78.37
2024-02-08T11:42:49.930Z,77.30
2024-02-08T11:46:18.558Z,77.13
2024-02-08T11:49:53.352Z,77.56
2024-02-08T11:53:22.380Z,77.16
2024-02-08T11:56:51.151Z,76.51
2024-02-08T12:00:20.326Z,76.80
2024-02-08T12:03:49.593Z,76.55
2024-02-08T12:07:18.655Z,76.30
2024-02-08T12:10:47.814Z,76.06
2024-02-08T12:14:24.572Z,75.74
2024-02-08T12:17:56.397Z,75.55
2024-02-08T12:21:25.227Z,75.95
2024-02-08T12:24:53.138Z,75.12
2024-02-08T12:28:01.480Z,75.21
2024-02-08T12:31:30.125Z,74.95
2024-02-08T12:34:59.660Z,74.88
2024-02-08T12:38:31.967Z,74.46
2024-02-08T12:42:00.792Z,74.49
2024-02-08T12:45:32.285Z,73.58
2024-02-08T12:49:01.438Z,74.55
2024-02-08T12:52:30.323Z,74.72
2024-02-08T12:56:01.525Z,74.67
2024-02-08T12:59:42.072Z,74.36
2024-02-08T13:03:10.680Z,73.90
2024-02-08T13:06:43.306Z,73.50
2024-02-08T13:10:11.996Z,73.89
2024-02-08T13:13:41.398Z,73.84
2024-02-08T13:17:08.568Z,73.72
2024-02-08T13:20:30.540Z,73.69
2024-02-08T13:23:59.326Z,73.87
2024-02-08T13:27:27.895Z,72.67
2024-02-08T13:31:09.448Z,72.10
2024-02-08T13:34:38.770Z,71.93
2024-02-08T13:38:06.835Z,71.88
2024-02-08T13:41:35.866Z,71.77
2024-02-08T13:45:04.707Z,72.02
2024-02-08T13:48:34.025Z,72.30
2024-02-08T13:52:02.886Z,72.23
2024-02-08T13:55:46.601Z,72.27
2024-02-08T13:59:22.474Z,72.15
2024-02-08T14:02:51.293Z,72.14
2024-02-08T14:06:21.946Z,72.06
2024-02-08T14:09:52.769Z,72.24
2024-02-08T14:13:21.428Z,72.41
2024-02-08T14:16:50.555Z,72.23
2024-02-08T14:20:19.622Z,72.38
2024-02-08T14:23:48.343Z,72.25
2024-02-08T14:27:16.864Z,72.44
2024-02-08T14:30:45.846Z,72.65
2024-02-08T14:34:14.767Z,72.56
2024-02-08T14:37:43.672Z,72.68
2024-02-08T14:41:15.480Z,72.72
2024-02-08T14:44:44.094Z,73.03
2024-02-08T14:48:13.100Z,73.05
2024-02-08T14:51:44.704Z,73.02
2024-02-08T14:55:13.437Z,73.05
2024-02-08T14:58:49.553Z,73.14
2024-02-08T15:02:26.827Z,73.24
2024-02-08T15:06:02.072Z,73.36
2024-02-08T15:09:29.549Z,73.22
2024-02-08T15:13:14.589Z,73.36
2024-02-08T15:16:43.470Z,73.65
2024-02-08T15:20:12.318Z,73.71
2024-02-08T15:23:53.129Z,73.75
2024-02-08T15:27:27.603Z,73.69
2024-02-08T15:30:59.865Z,73.78
2024-02-08T15:34:38.122Z,73.92
2024-02-08T15:41:38.901Z,74.29
2024-02-08T15:45:07.716Z,74.16
2024-02-08T15:48:46.642Z,74.29
2024-02-08T15:52:16.031Z,74.56
2024-02-08T15:55:40.227Z,74.83
2024-02-08T15:59:09.081Z,74.64
2024-02-08T16:02:38.086Z,74.66
2024-02-08T16:06:06.862Z,75.03
2024-02-08T16:09:47.320Z,74.97
2024-02-08T16:13:16.096Z,75.24
2024-02-08T16:16:45.203Z,75.58
2024-02-08T16:20:13.802Z,75.17
2024-02-08T16:23:42.673Z,75.59
2024-02-08T16:27:11.257Z,75.52
2024-02-08T16:30:52.312Z,75.52
2024-02-08T16:34:21.144Z,75.99
2024-02-08T16:38:03.142Z,75.75
2024-02-08T16:41:31.787Z,75.95
2024-02-08T16:45:00.616Z,76.02
2024-02-08T16:48:35.771Z,76.31
2024-02-08T16:52:07.588Z,76.83
2024-02-08T16:55:37.194Z,76.89
2024-02-08T16:59:05.557Z,76.50
2024-02-08T17:02:34.329Z,76.88
2024-02-08T17:06:12.158Z,76.84
2024-02-08T17:09:41.341Z,76.57
2024-02-08T17:13:19.043Z,76.60
2024-02-08T17:16:47.781Z,77.04
2024-02-08T17:20:19.697Z,77.16
2024-02-08T17:23:51.234Z,76.50
2024-02-08T17:27:25.930Z,77.07
2024-02-08T17:31:13.100Z,76.99
2024-02-08T17:34:45.056Z,77.14
2024-02-08T17:38:13.781Z,77.17
2024-02-08T17:41:42.613Z,77.50
2024-02-08T17:45:11.159Z,77.51
2024-02-08T17:48:40.830Z,77.02
2024-02-08T17:52:12.666Z,77.25
2024-02-08T17:55:41.237Z,77.23
2024-02-08T17:59:10.153Z,77.39
2024-02-08T18:02:40.098Z,77.49
2024-02-08T18:06:09.069Z,77.59
2024-02-08T18:09:37.066Z,77.30
2024-02-08T18:13:06.205Z,77.61
2024-02-08T18:16:35.113Z,77.38
2024-02-08T18:20:05.936Z,77.54
2024-02-08T18:23:35.085Z,77.88
2024-02-08T18:27:04.097Z,77.40
2024-02-08T18:30:33.842Z,77.60
2024-02-08T18:34:02.809Z,77.27
2024-02-08T18:37:32.494Z,77.56
2024-02-08T18:41:01.092Z,77.46
2024-02-08T18:44:32.098Z,77.55
2024-02-08T18:48:00.790Z,77.70
2024-02-08T18:51:29.639Z,77.97
2024-02-08T18:54:58.270Z,77.83
2024-02-08T18:58:26.949Z,77.83
2024-02-08T19:02:04.775Z,78.14
2024-02-08T19:05:37.630Z,78.27
2024-02-08T19:09:06.996Z,77.97
2024-02-08T19:12:35.928Z,78.08
2024-02-08T19:16:04.845Z,78.33
2024-02-08T19:19:33.101Z,78.32
2024-02-08T19:23:01.876Z,78.05
2024-02-08T19:26:30.658Z,78.27
2024-02-08T19:29:59.369Z,78.70
2024-02-08T19:33:28.320Z,78.75
2024-02-08T19:36:57.050Z,78.19
2024-02-08T19:40:25.946Z,78.29
2024-02-08T19:43:57.006Z,78.73
2024-02-08T19:47:34.805Z,78.75
2024-02-08T19:51:03.647Z,78.77
2024-02-08T19:54:25.594Z,78.83
2024-02-08T19:57:58.016Z,78.72
2024-02-08T20:01:32.991Z,79.02
2024-02-08T20:05:03.307Z,78.95
2024-02-08T20:08:32.442Z,78.99
2024-02-08T20:12:01.225Z,79.09
2024-02-08T20:15:38.927Z,78.96
2024-02-08T20:19:08.381Z,78.96
2024-02-08T20:22:40.278Z,78.91
2024-02-08T20:26:12.180Z,78.88
2024-02-08T20:29:41.937Z,79.14
2024-02-08T20:33:10.953Z,79.06
2024-02-08T20:36:39.719Z,79.47
2024-02-08T20:40:08.497Z,79.74
2024-02-08T20:43:36.484Z,79.53
2024-02-08T20:47:12.227Z,79.23
2024-02-08T20:50:43.877Z,79.15
2024-02-08T20:54:13.581Z,79.46
2024-02-08T20:57:43.073Z,79.49
2024-02-08T21:01:12.338Z,79.03
2024-02-08T21:04:41.047Z,79.29
2024-02-08T21:08:09.940Z,79.54
2024-02-08T21:11:41.642Z,79.79
2024-02-08T21:15:09.317Z,79.70
2024-02-08T21:18:41.006Z,80.09
2024-02-08T21:22:09.310Z,80.05
2024-02-08T21:25:38.671Z,80.06
2024-02-08T21:29:10.225Z,80.15
2024-02-08T21:32:38.875Z,79.77
2024-02-08T21:36:08.030Z,80.15
2024-02-08T21:39:36.757Z,80.40
2024-02-08T21:43:05.710Z,80.39
2024-02-08T21:46:34.649Z,80.28
2024-02-08T21:50:03.600Z,79.68
2024-02-08T21:53:32.346Z,80.01
2024-02-08T21:57:01.002Z,80.08
2024-02-08T22:00:31.197Z,79.90
2024-02-08T22:04:01.389Z,80.30
2024-02-08T22:07:30.322Z,80.02
2024-02-08T22:11:00.498Z,80.68
2024-02-08T22:14:29.423Z,80.40
2024-02-08T22:17:58.820Z,79.63
2024-02-08T22:21:27.497Z,80.08
2024-02-08T22:24:56.262Z,80.33
2024-02-08T22:28:25.238Z,80.06
2024-02-08T22:31:54.600Z,80.36
2024-02-08T22:35:23.536Z,79.95
2024-02-08T22:38:52.440Z,80.21
2024-02-08T22:42:27.013Z,80.04
2024-02-08T22:45:55.967Z,80.08
2024-02-08T22:49:24.960Z,80.43
2024-02-08T22:52:54.035Z,80.43
2024-02-08T22:56:24.706Z,81.09
2024-02-08T22:59:53.802Z,80.58
2024-02-08T23:03:28.651Z,80.34
2024-02-08T23:07:00.494Z,80.40
2024-02-08T23:10:29.518Z,80.74
2024-02-08T23:13:58.601Z,80.53
2024-02-08T23:17:27.587Z,80.75
2024-02-08T23:20:56.812Z,80.86
2024-02-08T23:24:25.645Z,80.90
2024-02-08T23:27:54.684Z,81.56
2024-02-08T23:31:24.197Z,81.57
2024-02-08T23:34:52.909Z,81.96
2024-02-08T23:38:21.858Z,81.70
2024-02-08T23:41:51.055Z,81.31
2024-02-08T23:45:20.012Z,82.69
2024-02-08T23:48:52.746Z,82.19
2024-02-08T23:52:21.807Z,81.92
2024-02-08T23:55:50.635Z,81.93
2024-02-08T23:59:19.582Z,82.29
